Hlavní strana
METAR-TAF:

METAR-TAF

Letiště :

Córdoba, Španělsko

zeměpisná šířka: 37-51N, zeměpisná délka: 004-51W, výška: 90 m

Aktuální stav počasí

Zpráva byla vytvořena před 15 minutami, v 20:00 UTC
Jižní vítr 3 kt, proměnlivý mezi východním a západojihozápadním
Teplota 15°C
Vlhkost vzduchu 72%
Tlak 1016 hPa
Viditelnost 10 km a více
Žádná oblačnost pod 1500 m, nevyskytují se cumulonimby.

METAR: LEBA 042000Z AUTO 18003KT 100V250 CAVOK 15/10 Q1016

Čas: 22:15 (20:15 UTC)

Předpověď počasí

Zpráva byla vytvořena před 3 hodinami a 15 minutami, v 17:00 UTC
Předpověď platná od 04 v 18 UTC do 05 v 03 UTC
vítr z různých směrů 3 kt
Viditelnost 10 km a více
Žádná oblačnost pod 1500 m, nevyskytují se cumulonimby.

TAF: LEBA 041700Z 0418/0503 VRB03KT CAVOK

Stav a předpovědi počasí z více než 4 000 letišť (zprávy METAR a TAF).

Červené a žluté tečky na mapě představují dostupné meteorologické stanice.

Když kurzor umístíte na tečku, zobrazí se název stanice.

Pak kliknutím zobrazíte stav a předpověď počasí.

Chcete-li změnit mapu, kliknutím na zelené tlačítko se znaménkem +mapu přiblížíte, kliknutím na zelené tlačítko se znaménkem – mapu oddálíte a kliknutím na zelené šipky přejdete na sousední mapy.


METAR-TAF: